Time;durP1;ratioP1;P1;durP2;ratioP2;P2;SDS_P1;SDS_P2;PMS_P1;PMS_P2;Temp;Humidity;BMP_temperature;BMP_pressure;BME280_temperature;BME280_humidity;BME280_pressure;Samples;Min_cycle;Max_cycle;Signal;HPM_P1;HPM_P2
2021/08/11 00:01:30;;;;;;;5.88;3.40;;;;;;;;;;5015266;28;20030;-74
2021/08/11 00:03:56;;;;;;;6.43;3.60;;;;;;;;;;5016416;28;20029;-72
2021/08/11 00:06:22;;;;;;;6.65;3.85;;;;;;;;;;5016422;28;20060;-73
2021/08/11 00:08:48;;;;;;;6.57;3.10;;;;;;;;;;5015712;28;20030;-75
2021/08/11 00:11:14;;;;;;;5.32;3.55;;;;;;;;;;5016329;28;20470;-75
2021/08/11 00:13:40;;;;;;;6.28;3.50;;;;;;;;;;5016573;28;20076;-75
2021/08/11 00:16:06;;;;;;;6.07;3.67;;;;;;;;;;5016181;28;20034;-76
2021/08/11 00:18:32;;;;;;;6.47;4.05;;;;;;;;;;5016178;28;20052;-75
2021/08/11 00:20:58;;;;;;;6.10;3.78;;;;;;;;;;5016166;28;20080;-75
2021/08/11 00:23:25;;;;;;;8.38;3.20;;;;;;;;;;5014870;28;20486;-74
2021/08/11 00:25:54;;;;;;;6.10;3.50;;;;;;;;;;5016077;28;20030;-78
2021/08/11 00:28:21;;;;;;;5.45;3.40;;;;;;;;;;5016655;28;20092;-73
2021/08/11 00:30:48;;;;;;;6.85;3.50;;;;;;;;;;5016007;28;20053;-77
2021/08/11 00:33:14;;;;;;;7.53;3.67;;;;;;;;;;5015884;28;20033;-74
2021/08/11 00:35:40;;;;;;;6.72;3.47;;;;;;;;;;5016333;28;20364;-73
2021/08/11 00:38:07;;;;;;;6.30;3.35;;;;;;;;;;5015823;28;20029;-75
2021/08/11 00:40:33;;;;;;;5.30;3.60;;;;;;;;;;5016093;28;20100;-74
2021/08/11 00:42:59;;;;;;;5.90;3.63;;;;;;;;;;5015758;28;20497;-73
2021/08/11 00:45:26;;;;;;;7.82;3.80;;;;;;;;;;5015692;28;20498;-75
2021/08/11 00:47:52;;;;;;;8.05;3.83;;;;;;;;;;5015696;28;20113;-73
2021/08/11 00:50:18;;;;;;;7.43;3.92;;;;;;;;;;5015612;28;20030;-76
2021/08/11 00:52:46;;;;;;;5.40;3.35;;;;;;;;;;5015555;28;20025;-74
2021/08/11 00:55:12;;;;;;;6.38;3.28;;;;;;;;;;5015781;28;20022;-74
2021/08/11 00:57:40;;;;;;;6.10;3.47;;;;;;;;;;5015517;28;20469;-74
2021/08/11 01:00:06;;;;;;;5.22;3.30;;;;;;;;;;5015719;28;20022;-73
2021/08/11 01:02:33;;;;;;;9.07;3.80;;;;;;;;;;5014980;28;20022;-74
2021/08/11 01:05:00;;;;;;;6.45;4.13;;;;;;;;;;5015612;28;20029;-72
2021/08/11 01:07:27;;;;;;;5.75;3.50;;;;;;;;;;5015281;28;20081;-74
2021/08/11 01:09:53;;;;;;;5.93;3.33;;;;;;;;;;5016438;28;20034;-72
2021/08/11 01:12:22;;;;;;;6.35;3.72;;;;;;;;;;5017945;28;20080;-73
2021/08/11 01:14:48;;;;;;;5.88;3.58;;;;;;;;;;5015729;28;20509;-73
2021/08/11 01:17:14;;;;;;;6.10;3.58;;;;;;;;;;5013913;28;20022;-72
2021/08/11 01:19:40;;;;;;;6.80;3.92;;;;;;;;;;5015304;28;20080;-74
2021/08/11 01:22:09;;;;;;;6.47;4.10;;;;;;;;;;5013702;28;20014;-75
2021/08/11 01:24:54;;;;;;;7.47;4.15;;;;;;;;;;5015488;28;20022;-73
2021/08/11 01:27:32;;;;;;;6.70;4.07;;;;;;;;;;5014923;28;20050;-74
2021/08/11 01:30:05;;;;;;;7.18;4.38;;;;;;;;;;5014881;28;20026;-74
2021/08/11 01:32:50;;;;;;;6.10;3.58;;;;;;;;;;5015208;28;20022;-78
2021/08/11 01:35:18;;;;;;;8.90;4.90;;;;;;;;;;5015001;28;20034;-72
2021/08/11 01:37:45;;;;;;;8.32;4.78;;;;;;;;;;5014722;28;20014;-73
2021/08/11 01:40:12;;;;;;;7.93;4.40;;;;;;;;;;5014682;28;20100;-73
2021/08/11 01:42:44;;;;;;;9.50;4.72;;;;;;;;;;5014620;28;20486;-76
2021/08/11 01:45:13;;;;;;;9.02;5.00;;;;;;;;;;5015209;28;20080;-72
2021/08/11 01:47:59;;;;;;;9.70;5.05;;;;;;;;;;5015123;28;20053;-75
2021/08/11 01:50:26;;;;;;;8.15;5.07;;;;;;;;;;5014399;28;20056;-76
2021/08/11 01:52:54;;;;;;;8.82;4.60;;;;;;;;;;5014493;28;20030;-74
2021/08/11 01:55:20;;;;;;;8.90;5.15;;;;;;;;;;5014663;28;20029;-75
2021/08/11 01:57:48;;;;;;;10.52;5.05;;;;;;;;;;5013507;28;20022;-73
2021/08/11 02:00:15;;;;;;;10.23;4.82;;;;;;;;;;5014383;28;20048;-76
2021/08/11 02:02:42;;;;;;;8.98;4.82;;;;;;;;;;5014391;28;20022;-74
2021/08/11 02:05:11;;;;;;;8.90;4.80;;;;;;;;;;5015325;28;20037;-77
2021/08/11 02:07:39;;;;;;;7.90;4.57;;;;;;;;;;5013943;28;20107;-78
2021/08/11 02:10:05;;;;;;;8.38;4.88;;;;;;;;;;5014419;28;20460;-77
2021/08/11 02:12:31;;;;;;;10.40;5.30;;;;;;;;;;5014617;28;20026;-75
2021/08/11 02:14:58;;;;;;;9.68;4.72;;;;;;;;;;5013960;28;20029;-76
2021/08/11 02:17:24;;;;;;;7.50;4.35;;;;;;;;;;5014529;28;20029;-74
2021/08/11 02:19:51;;;;;;;8.32;4.32;;;;;;;;;;5014230;28;20054;-76
2021/08/11 02:22:17;;;;;;;9.98;4.80;;;;;;;;;;5014253;28;20052;-75
2021/08/11 02:24:43;;;;;;;8.57;4.47;;;;;;;;;;5013929;28;20025;-75
2021/08/11 02:27:11;;;;;;;7.30;4.45;;;;;;;;;;5014378;28;20097;-76
2021/08/11 02:29:45;;;;;;;8.65;4.47;;;;;;;;;;5014088;28;20104;-75
2021/08/11 02:32:30;;;;;;;9.65;4.53;;;;;;;;;;5014418;28;20467;-76
2021/08/11 02:35:09;;;;;;;10.02;4.70;;;;;;;;;;5013748;28;20026;-72
2021/08/11 02:38:01;;;;;;;6.65;4.00;;;;;;;;;;5014086;28;20549;-74
2021/08/11 02:40:45;;;;;;;8.77;4.18;;;;;;;;;;5008845;28;20038;-75
2021/08/11 02:43:11;;;;;;;8.95;4.20;;;;;;;;;;5013659;28;20026;-75
2021/08/11 02:45:39;;;;;;;8.32;4.22;;;;;;;;;;5013872;28;20076;-75
2021/08/11 02:48:06;;;;;;;7.88;4.30;;;;;;;;;;5013626;28;20030;-73
2021/08/11 02:50:32;;;;;;;6.65;4.13;;;;;;;;;;5013583;28;20494;-75
2021/08/11 02:52:58;;;;;;;8.70;4.30;;;;;;;;;;5013583;28;20433;-74
2021/08/11 02:55:25;;;;;;;6.15;3.65;;;;;;;;;;5013463;28;20453;-77
2021/08/11 02:57:51;;;;;;;6.70;3.90;;;;;;;;;;5013516;28;20386;-75
2021/08/11 03:00:17;;;;;;;10.60;4.20;;;;;;;;;;5013774;28;20467;-74
2021/08/11 03:02:44;;;;;;;8.63;4.13;;;;;;;;;;5013378;28;20033;-76
2021/08/11 03:05:11;;;;;;;8.63;4.20;;;;;;;;;;5013419;28;20072;-77
2021/08/11 03:07:37;;;;;;;7.47;4.80;;;;;;;;;;5011739;28;20125;-74
2021/08/11 03:10:04;;;;;;;8.20;4.50;;;;;;;;;;5013634;28;20107;-74
2021/08/11 03:12:30;;;;;;;8.60;4.70;;;;;;;;;;5013376;28;20025;-75
2021/08/11 03:14:57;;;;;;;10.85;4.53;;;;;;;;;;5013234;28;20034;-76
2021/08/11 03:17:26;;;;;;;10.23;4.30;;;;;;;;;;5013274;28;20076;-74
2021/08/11 03:19:52;;;;;;;7.47;4.63;;;;;;;;;;5013333;28;20390;-76
2021/08/11 03:22:18;;;;;;;5.30;3.33;;;;;;;;;;5013334;28;20050;-75
2021/08/11 03:24:44;;;;;;;7.15;4.00;;;;;;;;;;5013254;28;20497;-75
2021/08/11 03:27:10;;;;;;;8.48;3.88;;;;;;;;;;5016131;28;20026;-75
2021/08/11 03:29:37;;;;;;;9.52;4.70;;;;;;;;;;5017417;28;20385;-74
2021/08/11 03:32:03;;;;;;;7.40;3.72;;;;;;;;;;5017126;28;20640;-74
2021/08/11 03:34:29;;;;;;;9.43;4.72;;;;;;;;;;5017063;28;20021;-76
2021/08/11 03:36:56;;;;;;;7.97;4.95;;;;;;;;;;5016971;28;20030;-77
2021/08/11 03:39:22;;;;;;;9.07;4.25;;;;;;;;;;5017251;28;20061;-75
2021/08/11 03:41:48;;;;;;;7.57;4.53;;;;;;;;;;5016937;28;20026;-74
2021/08/11 03:44:14;;;;;;;8.35;4.40;;;;;;;;;;5017172;28;20033;-75
2021/08/11 03:46:40;;;;;;;9.85;4.55;;;;;;;;;;5016840;28;20474;-75
2021/08/11 03:49:06;;;;;;;7.22;4.90;;;;;;;;;;5017079;28;20030;-75
2021/08/11 03:51:32;;;;;;;10.05;4.70;;;;;;;;;;5017038;28;20033;-75
2021/08/11 03:53:58;;;;;;;6.82;4.00;;;;;;;;;;5016996;28;20030;-76
2021/08/11 03:56:24;;;;;;;9.63;4.22;;;;;;;;;;5016614;28;20057;-74
2021/08/11 03:58:50;;;;;;;8.98;4.05;;;;;;;;;;5016658;28;20053;-74
2021/08/11 04:01:18;;;;;;;7.72;3.90;;;;;;;;;;5016566;28;20452;-74
2021/08/11 04:03:44;;;;;;;8.00;4.47;;;;;;;;;;5015186;28;20029;-72
2021/08/11 04:06:10;;;;;;;8.77;4.40;;;;;;;;;;5016287;28;20578;-74
2021/08/11 04:08:36;;;;;;;9.75;3.88;;;;;;;;;;5015134;28;20057;-75
2021/08/11 04:11:02;;;;;;;8.60;4.20;;;;;;;;;;5016385;28;20026;-76
2021/08/11 04:13:28;;;;;;;10.35;3.90;;;;;;;;;;5016349;28;20030;-75
2021/08/11 04:15:54;;;;;;;7.60;4.13;;;;;;;;;;5016455;28;20052;-75
2021/08/11 04:18:20;;;;;;;6.57;4.07;;;;;;;;;;5016250;28;20030;-73
2021/08/11 04:20:46;;;;;;;6.80;3.50;;;;;;;;;;5016224;28;20058;-76
2021/08/11 04:23:13;;;;;;;7.78;3.63;;;;;;;;;;5016425;28;20029;-74
2021/08/11 04:25:40;;;;;;;7.15;4.28;;;;;;;;;;5016677;28;20025;-74
2021/08/11 04:28:09;;;;;;;8.85;4.18;;;;;;;;;;5016106;28;20029;-77
2021/08/11 04:30:35;;;;;;;6.47;3.28;;;;;;;;;;5014744;28;20395;-74
2021/08/11 04:33:01;;;;;;;6.43;3.35;;;;;;;;;;5015988;28;20394;-76
2021/08/11 04:35:27;;;;;;;7.40;3.58;;;;;;;;;;5016133;28;20030;-78
2021/08/11 04:37:53;;;;;;;5.90;3.90;;;;;;;;;;5014733;28;20100;-76
2021/08/11 04:40:19;;;;;;;6.50;3.95;;;;;;;;;;5015839;28;20028;-76
2021/08/11 04:42:45;;;;;;;6.53;3.50;;;;;;;;;;5016314;28;20026;-74
2021/08/11 04:45:12;;;;;;;9.23;3.95;;;;;;;;;;5016023;28;20026;-76
2021/08/11 04:47:38;;;;;;;5.80;3.53;;;;;;;;;;5015695;28;20398;-75
2021/08/11 04:50:04;;;;;;;8.55;3.88;;;;;;;;;;5015634;28;20096;-75
2021/08/11 04:52:30;;;;;;;7.32;3.53;;;;;;;;;;5015600;28;20104;-75
2021/08/11 04:54:56;;;;;;;8.05;4.00;;;;;;;;;;5015435;28;20553;-75
2021/08/11 04:57:22;;;;;;;9.40;3.78;;;;;;;;;;5014233;28;20032;-75
2021/08/11 04:59:48;;;;;;;7.57;3.70;;;;;;;;;;5015456;28;20075;-74
2021/08/11 05:02:14;;;;;;;8.70;4.03;;;;;;;;;;5015290;28;20508;-77
2021/08/11 05:04:40;;;;;;;7.47;3.80;;;;;;;;;;5015350;28;20025;-75
2021/08/11 05:07:07;;;;;;;6.78;4.05;;;;;;;;;;5015113;28;20099;-75
2021/08/11 05:09:33;;;;;;;6.57;4.05;;;;;;;;;;5015263;28;20026;-74
2021/08/11 05:11:59;;;;;;;6.85;3.63;;;;;;;;;;5015507;28;20049;-75
2021/08/11 05:14:26;;;;;;;6.35;3.53;;;;;;;;;;5015200;28;20022;-79
2021/08/11 05:16:52;;;;;;;8.27;3.85;;;;;;;;;;5015362;28;20041;-75
2021/08/11 05:19:18;;;;;;;5.95;3.25;;;;;;;;;;5015375;28;20060;-75
2021/08/11 05:21:44;;;;;;;6.57;3.22;;;;;;;;;;5015571;28;20030;-74
2021/08/11 05:24:11;;;;;;;8.45;3.30;;;;;;;;;;5015014;28;20022;-73
2021/08/11 05:26:37;;;;;;;6.22;3.38;;;;;;;;;;5015560;28;20117;-75
2021/08/11 05:29:03;;;;;;;7.95;3.83;;;;;;;;;;5015195;28;20030;-74
2021/08/11 05:31:29;;;;;;;6.45;3.58;;;;;;;;;;5015162;28;20056;-77
2021/08/11 05:33:56;;;;;;;8.48;4.13;;;;;;;;;;5014905;28;20083;-76
2021/08/11 05:36:22;;;;;;;5.65;3.75;;;;;;;;;;5014713;28;20030;-76
2021/08/11 05:38:48;;;;;;;9.20;4.30;;;;;;;;;;5015276;28;20071;-74
2021/08/11 05:41:14;;;;;;;6.45;3.55;;;;;;;;;;5014698;28;20036;-75
2021/08/11 05:43:40;;;;;;;8.20;3.95;;;;;;;;;;5014690;28;20447;-73
2021/08/11 05:46:06;;;;;;;6.95;3.90;;;;;;;;;;5014869;28;20485;-76
2021/08/11 05:48:32;;;;;;;8.15;4.30;;;;;;;;;;5014313;28;20026;-74
2021/08/11 05:50:58;;;;;;;10.32;4.97;;;;;;;;;;5014801;28;20026;-75
2021/08/11 05:53:24;;;;;;;9.43;5.22;;;;;;;;;;5015049;28;20033;-76
2021/08/11 05:55:51;;;;;;;9.77;4.65;;;;;;;;;;5014423;28;20029;-73
2021/08/11 05:58:17;;;;;;;9.65;4.88;;;;;;;;;;5014416;28;20386;-75
2021/08/11 06:00:43;;;;;;;11.10;5.07;;;;;;;;;;5014400;28;20084;-77
2021/08/11 06:03:09;;;;;;;9.18;4.70;;;;;;;;;;5014793;28;20413;-73
2021/08/11 06:05:36;;;;;;;9.32;4.97;;;;;;;;;;5014081;28;20030;-76
2021/08/11 06:08:02;;;;;;;11.32;5.35;;;;;;;;;;5014551;28;20402;-76
2021/08/11 06:10:28;;;;;;;8.88;4.60;;;;;;;;;;5014192;28;20092;-74
2021/08/11 06:12:54;;;;;;;11.68;5.63;;;;;;;;;;5014169;28;20437;-75
2021/08/11 06:15:20;;;;;;;7.75;5.00;;;;;;;;;;5014292;28;20386;-74
2021/08/11 06:17:47;;;;;;;11.93;6.32;;;;;;;;;;5014347;28;20045;-75
2021/08/11 06:20:15;;;;;;;12.02;5.82;;;;;;;;;;5014010;28;20050;-74
2021/08/11 06:22:41;;;;;;;9.07;4.00;;;;;;;;;;5014256;28;20018;-78
2021/08/11 06:25:07;;;;;;;12.63;5.07;;;;;;;;;;5013964;28;20026;-75
2021/08/11 06:27:33;;;;;;;12.57;5.72;;;;;;;;;;5013918;28;20041;-74
2021/08/11 06:29:59;;;;;;;10.45;5.55;;;;;;;;;;5013841;28;20398;-75
2021/08/11 06:32:25;;;;;;;11.35;5.50;;;;;;;;;;5013816;28;20026;-74
2021/08/11 06:34:51;;;;;;;15.32;5.88;;;;;;;;;;5013994;28;20032;-74
2021/08/11 06:37:18;;;;;;;9.35;5.65;;;;;;;;;;5012485;28;20052;-75
2021/08/11 06:39:44;;;;;;;8.82;5.60;;;;;;;;;;5013758;28;20026;-73
2021/08/11 06:42:10;;;;;;;8.68;5.53;;;;;;;;;;5013720;28;20391;-74
2021/08/11 06:44:36;;;;;;;10.15;5.30;;;;;;;;;;5013671;28;20091;-75
2021/08/11 06:47:03;;;;;;;9.93;5.50;;;;;;;;;;5013628;28;20026;-75
2021/08/11 06:49:29;;;;;;;10.23;5.72;;;;;;;;;;5013826;28;20036;-75
2021/08/11 06:51:55;;;;;;;10.65;4.97;;;;;;;;;;5013593;28;20069;-74
2021/08/11 06:54:21;;;;;;;8.30;4.88;;;;;;;;;;5013555;28;20037;-75
2021/08/11 06:56:47;;;;;;;8.38;4.97;;;;;;;;;;5013715;28;20097;-76
2021/08/11 06:59:13;;;;;;;10.95;5.93;;;;;;;;;;5012240;28;20060;-76
2021/08/11 07:01:39;;;;;;;8.20;5.43;;;;;;;;;;5012827;28;20021;-75
2021/08/11 07:04:05;;;;;;;10.13;5.57;;;;;;;;;;5013409;28;20466;-76
2021/08/11 07:06:32;;;;;;;12.30;6.55;;;;;;;;;;5013184;28;20050;-75
2021/08/11 07:08:58;;;;;;;9.00;5.55;;;;;;;;;;5013442;28;20030;-75
2021/08/11 07:11:24;;;;;;;8.68;5.70;;;;;;;;;;5013364;28;20028;-74
2021/08/11 07:13:50;;;;;;;10.25;6.15;;;;;;;;;;5013370;28;20104;-74
2021/08/11 07:16:17;;;;;;;20.17;9.57;;;;;;;;;;5013260;28;20026;-74
2021/08/11 07:18:43;;;;;;;10.98;6.90;;;;;;;;;;5013839;28;20390;-75
2021/08/11 07:21:09;;;;;;;13.05;8.65;;;;;;;;;;5013427;28;20362;-75
2021/08/11 07:23:35;;;;;;;12.85;7.22;;;;;;;;;;5014298;28;20476;-75
2021/08/11 07:26:01;;;;;;;8.52;5.72;;;;;;;;;;5013786;28;20062;-75
2021/08/11 07:28:27;;;;;;;10.80;5.68;;;;;;;;;;5012001;28;20030;-76
2021/08/11 07:30:53;;;;;;;9.52;5.80;;;;;;;;;;5013487;28;20033;-77
2021/08/11 07:33:22;;;;;;;10.15;5.50;;;;;;;;;;5013254;28;20542;-76
2021/08/11 07:35:48;;;;;;;7.97;5.38;;;;;;;;;;5013192;28;20033;-76
2021/08/11 07:38:16;;;;;;;10.63;5.90;;;;;;;;;;5013403;28;20028;-77
2021/08/11 07:40:42;;;;;;;10.25;5.68;;;;;;;;;;5011868;28;20028;-76
2021/08/11 07:43:08;;;;;;;8.23;6.30;;;;;;;;;;5013063;28;20030;-76
2021/08/11 07:45:35;;;;;;;12.68;6.32;;;;;;;;;;5013055;28;20482;-75
2021/08/11 07:48:01;;;;;;;11.15;5.40;;;;;;;;;;5013344;28;20100;-76
2021/08/11 07:50:29;;;;;;;8.32;4.45;;;;;;;;;;5013043;28;20442;-78
2021/08/11 07:52:55;;;;;;;7.93;4.93;;;;;;;;;;5013003;28;20057;-77
2021/08/11 07:55:21;;;;;;;7.40;4.70;;;;;;;;;;5011658;28;20033;-76
2021/08/11 07:57:48;;;;;;;8.23;4.78;;;;;;;;;;5012990;28;20033;-77
2021/08/11 08:00:16;;;;;;;8.00;4.95;;;;;;;;;;5013456;28;20490;-76
2021/08/11 08:02:42;;;;;;;8.73;4.97;;;;;;;;;;5012809;28;20541;-76
2021/08/11 08:05:09;;;;;;;9.57;4.70;;;;;;;;;;5013196;28;20026;-77
2021/08/11 08:07:35;;;;;;;6.63;4.13;;;;;;;;;;5012533;28;20054;-77
2021/08/11 08:10:02;;;;;;;7.38;4.00;;;;;;;;;;5012860;28;20101;-75
2021/08/11 08:12:28;;;;;;;6.75;4.10;;;;;;;;;;5014433;28;20494;-75
2021/08/11 08:14:54;;;;;;;5.70;3.30;;;;;;;;;;5016565;28;20529;-76
2021/08/11 08:17:20;;;;;;;7.00;5.03;;;;;;;;;;5015314;28;20437;-75
2021/08/11 08:19:46;;;;;;;7.22;4.88;;;;;;;;;;5014929;28;20509;-77
2021/08/11 08:22:16;;;;;;;5.78;3.97;;;;;;;;;;5016146;28;20025;-76
2021/08/11 08:24:42;;;;;;;7.80;3.80;;;;;;;;;;5016480;28;20018;-77
2021/08/11 08:27:08;;;;;;;7.70;4.63;;;;;;;;;;5014808;28;20521;-76
2021/08/11 08:29:34;;;;;;;6.00;3.72;;;;;;;;;;5016310;28;20486;-77
2021/08/11 08:32:00;;;;;;;7.20;3.60;;;;;;;;;;5016043;28;20044;-75
2021/08/11 08:34:26;;;;;;;4.57;3.08;;;;;;;;;;5016006;28;20034;-77
2021/08/11 08:36:52;;;;;;;5.20;3.42;;;;;;;;;;5015874;28;20022;-76
2021/08/11 08:39:18;;;;;;;5.45;3.03;;;;;;;;;;5015885;28;20032;-76
2021/08/11 08:41:45;;;;;;;7.22;3.47;;;;;;;;;;5016101;28;20536;-76
2021/08/11 08:44:13;;;;;;;7.28;3.80;;;;;;;;;;5016064;28;20022;-76
2021/08/11 08:46:41;;;;;;;4.82;3.10;;;;;;;;;;5015755;28;20022;-76
2021/08/11 08:49:07;;;;;;;5.82;3.33;;;;;;;;;;5015670;28;20034;-76
2021/08/11 08:51:38;;;;;;;6.32;3.70;;;;;;;;;;5014335;28;20030;-76
2021/08/11 08:54:05;;;;;;;5.10;3.40;;;;;;;;;;5015892;28;20048;-78
2021/08/11 08:56:32;;;;;;;6.93;3.00;;;;;;;;;;5015957;28;20022;-76
2021/08/11 08:58:58;;;;;;;6.15;3.05;;;;;;;;;;5015521;28;20025;-76
2021/08/11 09:01:24;;;;;;;4.43;2.90;;;;;;;;;;5015460;28;20026;-75
2021/08/11 09:03:50;;;;;;;4.53;2.58;;;;;;;;;;5015295;28;20072;-76
2021/08/11 09:06:16;;;;;;;5.55;2.42;;;;;;;;;;5015483;28;20046;-77
2021/08/11 09:08:58;;;;;;;4.07;2.30;;;;;;;;;;5015570;28;20029;-76
2021/08/11 09:11:24;;;;;;;3.95;2.50;;;;;;;;;;5013978;28;20080;-77
2021/08/11 09:14:10;;;;;;;4.50;2.55;;;;;;;;;;5015435;28;20474;-76
2021/08/11 09:16:45;;;;;;;4.22;2.65;;;;;;;;;;5000452;28;20045;-76
2021/08/11 09:19:11;;;;;;;6.05;2.65;;;;;;;;;;5015741;28;20036;-77
2021/08/11 09:21:37;;;;;;;4.93;3.00;;;;;;;;;;5013813;28;20180;-76
2021/08/11 09:24:16;;;;;;;4.50;2.75;;;;;;;;;;5014422;28;20069;-77
2021/08/11 09:26:42;;;;;;;3.72;2.60;;;;;;;;;;5015340;28;20105;-77
2021/08/11 09:29:09;;;;;;;5.05;3.00;;;;;;;;;;5015033;28;20076;-76
2021/08/11 09:31:36;;;;;;;4.85;2.55;;;;;;;;;;5013692;28;20398;-77
2021/08/11 09:34:07;;;;;;;4.57;2.60;;;;;;;;;;5014959;28;20018;-77
2021/08/11 09:36:54;;;;;;;6.30;2.80;;;;;;;;;;5014878;28;20044;-77
2021/08/11 09:39:21;;;;;;;6.28;3.08;;;;;;;;;;5013320;28;20641;-76
2021/08/11 09:42:00;;;;;;;4.25;2.72;;;;;;;;;;5015013;28;20026;-76
2021/08/11 09:44:27;;;;;;;7.65;3.38;;;;;;;;;;5014723;28;20022;-77
2021/08/11 09:46:53;;;;;;;5.30;2.70;;;;;;;;;;5014620;28;20033;-77
2021/08/11 09:49:21;;;;;;;4.88;2.50;;;;;;;;;;5014885;28;20026;-77
2021/08/11 09:51:58;;;;;;;4.93;2.60;;;;;;;;;;5014572;28;20076;-77
2021/08/11 09:54:24;;;;;;;6.47;3.00;;;;;;;;;;5015022;28;20030;-76
2021/08/11 09:56:50;;;;;;;6.63;2.90;;;;;;;;;;5014385;28;20025;-76
2021/08/11 09:59:16;;;;;;;5.70;3.00;;;;;;;;;;5014655;28;20022;-77
2021/08/11 10:01:42;;;;;;;5.95;2.63;;;;;;;;;;5014387;28;20018;-77
2021/08/11 10:04:10;;;;;;;5.93;3.05;;;;;;;;;;5014249;28;20075;-77
2021/08/11 10:06:40;;;;;;;4.78;2.90;;;;;;;;;;5014084;28;20383;-76
2021/08/11 10:09:12;;;;;;;5.80;3.72;;;;;;;;;;5014777;28;20490;-76
2021/08/11 10:11:39;;;;;;;3.50;2.63;;;;;;;;;;5014314;28;20498;-77
2021/08/11 10:14:08;;;;;;;4.97;2.92;;;;;;;;;;5014154;28;20367;-76
2021/08/11 10:16:34;;;;;;;4.53;3.00;;;;;;;;;;5014033;28;20029;-76
2021/08/11 10:19:03;;;;;;;4.75;2.70;;;;;;;;;;5014068;28;20018;-77
2021/08/11 10:21:30;;;;;;;4.90;2.63;;;;;;;;;;5014662;28;20050;-77
2021/08/11 10:23:56;;;;;;;5.95;3.42;;;;;;;;;;5014005;28;20104;-76
2021/08/11 10:26:22;;;;;;;5.10;3.00;;;;;;;;;;5013981;28;20101;-76
2021/08/11 10:28:48;;;;;;;5.82;2.90;;;;;;;;;;5013861;28;20033;-77
2021/08/11 10:31:14;;;;;;;4.45;2.72;;;;;;;;;;5013874;28;20033;-77
2021/08/11 10:33:40;;;;;;;5.07;2.97;;;;;;;;;;5014091;28;20030;-77
2021/08/11 10:36:07;;;;;;;6.53;3.13;;;;;;;;;;5013149;28;20061;-76
2021/08/11 10:38:35;;;;;;;4.18;2.83;;;;;;;;;;5013778;28;20022;-77
2021/08/11 10:41:01;;;;;;;6.20;2.97;;;;;;;;;;5012498;28;20394;-77
2021/08/11 10:43:32;;;;;;;4.15;2.80;;;;;;;;;;5013677;28;20022;-77
2021/08/11 10:46:00;;;;;;;5.45;2.80;;;;;;;;;;5014264;28;20532;-77
2021/08/11 10:48:27;;;;;;;4.32;3.08;;;;;;;;;;5013933;28;20125;-77
2021/08/11 10:50:53;;;;;;;6.88;3.05;;;;;;;;;;5013980;28;20030;-76
2021/08/11 10:53:19;;;;;;;4.68;2.85;;;;;;;;;;5014033;28;20037;-76
2021/08/11 10:55:47;;;;;;;4.22;3.13;;;;;;;;;;5018026;28;20082;-76
2021/08/11 10:58:31;;;;;;;6.43;3.10;;;;;;;;;;5009619;28;20026;-78
2021/08/11 11:00:57;;;;;;;4.72;2.70;;;;;;;;;;5013568;28;20482;-78
2021/08/11 11:03:42;;;;;;;5.43;3.13;;;;;;;;;;5013689;28;20113;-77
2021/08/11 11:06:08;;;;;;;4.85;3.10;;;;;;;;;;5013566;28;20085;-77
2021/08/11 11:08:35;;;;;;;5.05;2.88;;;;;;;;;;5014149;28;20038;-76
2021/08/11 11:11:21;;;;;;;5.45;3.33;;;;;;;;;;5013461;28;20053;-76
2021/08/11 11:13:47;;;;;;;5.15;3.33;;;;;;;;;;5013637;28;20033;-76
2021/08/11 11:16:13;;;;;;;8.23;4.25;;;;;;;;;;5013360;28;20474;-76
2021/08/11 11:18:59;;;;;;;6.53;3.40;;;;;;;;;;5013406;28;20026;-77
2021/08/11 11:21:25;;;;;;;4.10;3.10;;;;;;;;;;5013493;28;20381;-76
2021/08/11 11:23:51;;;;;;;7.07;3.50;;;;;;;;;;5013307;28;20101;-77
2021/08/11 11:26:30;;;;;;;5.45;3.30;;;;;;;;;;5011984;28;20033;-77
2021/08/11 11:29:02;;;;;;;4.38;3.20;;;;;;;;;;5011740;28;20474;-76
2021/08/11 11:31:37;;;;;;;4.97;3.38;;;;;;;;;;5013286;28;20525;-77
2021/08/11 11:34:22;;;;;;;5.93;3.38;;;;;;;;;;5013741;28;20030;-77
2021/08/11 11:36:58;;;;;;;5.82;3.67;;;;;;;;;;5013682;28;20479;-77
2021/08/11 11:39:25;;;;;;;6.43;3.78;;;;;;;;;;5011899;28;20030;-77
2021/08/11 11:42:11;;;;;;;5.95;3.15;;;;;;;;;;5013472;28;20022;-77
2021/08/11 11:44:46;;;;;;;5.45;3.67;;;;;;;;;;5012931;28;20394;-76
2021/08/11 11:47:15;;;;;;;5.43;3.85;;;;;;;;;;5014797;28;20029;-76
2021/08/11 11:49:42;;;;;;;6.65;4.10;;;;;;;;;;5015409;28;20030;-75
2021/08/11 11:52:34;;;;;;;5.32;3.83;;;;;;;;;;5016817;28;20033;-76
2021/08/11 11:55:00;;;;;;;6.25;3.88;;;;;;;;;;5014503;28;20072;-80
2021/08/11 11:57:29;;;;;;;5.43;3.30;;;;;;;;;;5016938;28;20022;-76
2021/08/11 11:59:55;;;;;;;6.50;3.90;;;;;;;;;;5015402;28;20115;-73
2021/08/11 12:02:22;;;;;;;5.57;3.55;;;;;;;;;;5016900;28;20366;-74
2021/08/11 12:04:56;;;;;;;5.25;3.58;;;;;;;;;;5016520;28;20037;-74
2021/08/11 12:07:26;;;;;;;6.30;3.65;;;;;;;;;;5016507;28;20034;-75
2021/08/11 12:09:52;;;;;;;6.15;3.38;;;;;;;;;;5016468;28;20554;-75
2021/08/11 12:12:18;;;;;;;5.47;3.42;;;;;;;;;;5016691;28;20097;-74
2021/08/11 12:14:44;;;;;;;4.80;3.33;;;;;;;;;;5016352;28;20028;-73
2021/08/11 12:17:26;;;;;;;6.88;4.10;;;;;;;;;;5016299;28;20018;-74
2021/08/11 12:19:52;;;;;;;6.68;3.60;;;;;;;;;;5015450;28;20367;-74
2021/08/11 12:22:44;;;;;;;5.55;3.47;;;;;;;;;;5016509;28;20026;-74
2021/08/11 12:25:23;;;;;;;6.47;3.90;;;;;;;;;;5013742;28;20069;-75
2021/08/11 12:28:06;;;;;;;5.90;3.90;;;;;;;;;;5016509;28;20014;-75
2021/08/11 12:30:32;;;;;;;5.93;4.00;;;;;;;;;;5016690;28;20029;-74
2021/08/11 12:32:58;;;;;;;7.90;4.00;;;;;;;;;;5016294;28;20053;-75
2021/08/11 12:35:24;;;;;;;5.13;3.70;;;;;;;;;;5015877;28;20072;-75
2021/08/11 12:37:50;;;;;;;7.45;3.88;;;;;;;;;;5016182;28;20025;-78
2021/08/11 12:40:27;;;;;;;6.05;4.43;;;;;;;;;;5015920;28;20033;-76
2021/08/11 12:42:53;;;;;;;5.70;3.58;;;;;;;;;;5015820;28;20026;-75
2021/08/11 12:45:19;;;;;;;7.70;4.05;;;;;;;;;;5015740;28;20080;-77
2021/08/11 12:47:45;;;;;;;5.15;3.55;;;;;;;;;;5015754;28;20021;-77
2021/08/11 12:50:18;;;;;;;7.35;4.13;;;;;;;;;;5014338;28;20033;-78
2021/08/11 12:52:54;;;;;;;5.97;3.85;;;;;;;;;;5014372;28;20100;-80
2021/08/11 12:55:32;;;;;;;6.00;3.83;;;;;;;;;;5016073;28;20386;-76
2021/08/11 12:57:58;;;;;;;5.95;3.83;;;;;;;;;;5015186;28;20033;-77
2021/08/11 13:00:44;;;;;;;5.13;3.63;;;;;;;;;;5014994;28;20061;-75
2021/08/11 13:03:11;;;;;;;6.40;3.95;;;;;;;;;;5015461;28;20029;-78
2021/08/11 13:05:53;;;;;;;6.68;4.40;;;;;;;;;;5016009;28;20105;-76
2021/08/11 13:08:36;;;;;;;6.68;4.00;;;;;;;;;;5015698;28;20022;-76
2021/08/11 13:11:02;;;;;;;6.10;4.25;;;;;;;;;;5015920;28;20516;-77
2021/08/11 13:13:29;;;;;;;6.20;4.13;;;;;;;;;;5015446;28;20050;-76
2021/08/11 13:16:07;;;;;;;6.05;4.00;;;;;;;;;;5015492;28;20030;-77
2021/08/11 13:18:33;;;;;;;5.75;3.70;;;;;;;;;;5015406;28;20510;-75
2021/08/11 13:20:59;;;;;;;7.45;4.30;;;;;;;;;;5015163;28;20026;-73
2021/08/11 13:23:25;;;;;;;8.25;4.63;;;;;;;;;;5015308;28;20035;-73
2021/08/11 13:25:51;;;;;;;6.20;4.30;;;;;;;;;;5015293;28;20030;-75
2021/08/11 13:28:18;;;;;;;5.82;3.80;;;;;;;;;;5013787;28;20055;-76
2021/08/11 13:30:45;;;;;;;6.35;4.07;;;;;;;;;;5015408;28;20033;-75
2021/08/11 13:33:11;;;;;;;7.30;4.13;;;;;;;;;;5013650;28;20482;-77
2021/08/11 13:35:37;;;;;;;6.28;3.67;;;;;;;;;;5014716;28;20030;-77
2021/08/11 13:38:05;;;;;;;5.35;3.60;;;;;;;;;;5014787;28;20026;-73
2021/08/11 13:40:32;;;;;;;7.18;4.10;;;;;;;;;;5014872;28;20058;-77
2021/08/11 13:42:58;;;;;;;6.47;3.90;;;;;;;;;;5014665;28;20482;-78
2021/08/11 13:45:24;;;;;;;6.78;4.28;;;;;;;;;;5014731;28;20061;-78
2021/08/11 13:47:50;;;;;;;5.90;4.05;;;;;;;;;;5014699;28;20028;-77
2021/08/11 13:50:16;;;;;;;9.15;4.88;;;;;;;;;;5014584;28;20117;-76
2021/08/11 13:52:42;;;;;;;6.78;3.90;;;;;;;;;;5014786;28;20026;-80
2021/08/11 13:55:09;;;;;;;7.07;4.25;;;;;;;;;;5014589;28;20034;-80
2021/08/11 13:57:35;;;;;;;6.15;4.10;;;;;;;;;;5014933;28;20022;-78
2021/08/11 14:00:02;;;;;;;6.00;3.60;;;;;;;;;;5015024;28;20028;-75
2021/08/11 14:02:28;;;;;;;5.95;4.30;;;;;;;;;;5014424;28;20022;-74
2021/08/11 14:04:54;;;;;;;9.48;4.85;;;;;;;;;;5014579;28;20390;-77
2021/08/11 14:07:20;;;;;;;6.38;4.32;;;;;;;;;;5014225;28;20080;-75
2021/08/11 14:09:46;;;;;;;6.55;4.70;;;;;;;;;;5014362;28;20033;-76
2021/08/11 14:12:13;;;;;;;5.93;4.03;;;;;;;;;;5014452;28;20022;-76
2021/08/11 14:14:39;;;;;;;7.03;4.50;;;;;;;;;;5014693;28;20029;-77
2021/08/11 14:17:06;;;;;;;6.93;4.30;;;;;;;;;;5014354;28;20026;-80
2021/08/11 14:19:32;;;;;;;6.63;4.22;;;;;;;;;;5014090;28;20026;-80
2021/08/11 14:21:58;;;;;;;6.97;4.90;;;;;;;;;;5014071;28;20029;-78
2021/08/11 14:24:24;;;;;;;6.50;4.38;;;;;;;;;;5014259;28;20033;-77
2021/08/11 14:26:50;;;;;;;7.30;4.60;;;;;;;;;;5014247;28;20030;-80
2021/08/11 14:29:19;;;;;;;7.70;4.25;;;;;;;;;;5013949;28;20076;-79
2021/08/11 14:31:45;;;;;;;6.90;4.53;;;;;;;;;;5013958;28;20045;-76
2021/08/11 14:34:11;;;;;;;7.75;4.80;;;;;;;;;;5013921;28;20149;-75
2021/08/11 14:36:37;;;;;;;8.85;4.60;;;;;;;;;;5013750;28;20030;-78
2021/08/11 14:39:04;;;;;;;8.18;4.80;;;;;;;;;;5014298;28;20026;-76
2021/08/11 14:41:30;;;;;;;8.35;5.07;;;;;;;;;;5014040;28;20030;-76
2021/08/11 14:43:56;;;;;;;8.25;5.07;;;;;;;;;;5013688;28;20064;-73
2021/08/11 14:46:22;;;;;;;6.93;4.53;;;;;;;;;;5013667;28;20054;-80